• Join FlightAware (Why Join?)
  • Login
  • US Flag 
10:57PM EDT


 

Airport Tracker/Info


-or-


 

Live Flight TrackerFlight Track Log ✈ SWA1462 ✈ 14-Apr-2013 ✈ KMKE - KMSY

Flight Track Log - Related Links

Times and Time Zones

All times are in EDT time to prevent confusion due to time zone crossing. See the SWA1462 flight status page for this flight to view local times or setup timezone preferences in your user account.

Time Position Orientation Groundspeed Altitude Reporting Facility
EDT Latitude Longitude Course Direction KTS MPH feet Rate Location/Type
06:32PM 42.9500 -87.8500 90° East 156 180 2,800  Level KMKE
06:33PM 42.9206 -87.8639 199° South 268 308 4,700 3,720 Climbing Chicago Center
06:33PM 42.9167 -87.8833 255° West 210 242 6,200 3,720 Climbing KMKE
06:35PM 42.8581 -88.0028 236° Southwest 249 287 12,400 3,540 Climbing Chicago Center
06:36PM 42.7806 -88.0017 179° South 275 316 16,000 3,120 Climbing Chicago Center
06:37PM 42.6942 -88.0039 181° South 308 354 18,900 3,000 Climbing Chicago Center
06:38PM 42.5750 -88.0067 181° South 363 418 22,300 2,820 Climbing Chicago Center
06:39PM 42.4669 -88.0103 181° South 384 442 24,800 2,280 Climbing Chicago Center
06:40PM 42.3544 -88.0117 181° South 401 461 27,100 2,220 Climbing Chicago Center
06:41PM 42.2278 -88.0136 181° South 418 481 29,500 1,860 Climbing Chicago Center
06:42PM 42.1086 -88.0167 181° South 427 491 31,000 1,200 Climbing Chicago Center
06:43PM 41.9892 -88.0186 181° South 432 497 32,100 1,500 Climbing Chicago Center
06:44PM 41.8686 -88.0261 183° South 435 501 34,200 1,860 Climbing Chicago Center
06:45PM 41.7508 -88.0394 185° South 429 494 36,000 840 Climbing Chicago Center
06:46PM 41.6361 -88.0517 185° South 417 480 36,000  Level Chicago Center
06:47PM 41.5231 -88.0636 185° South 412 474 36,000 300 Level Chicago Center
06:48PM 41.4017 -88.0767 185° South 414 476 36,700 1,500 Climbing Chicago Center
06:49PM 41.2636 -88.0917 185° South 407 468 39,100 1,560 Climbing Chicago Center
06:50PM 41.1564 -88.1033 185° South 394 453 40,000 420 Climbing Chicago Center
06:52PM 41.0483 -88.1144 184° South 391 450 40,000  Level Chicago Center
06:53PM 40.9394 -88.1258 185° South 393 452 40,000  Level Chicago Center
06:54PM 40.8300 -88.1375 185° South 395 455 40,000  Level Chicago Center
06:55PM 40.7200 -88.1489 184° South 396 456 40,000  Level Chicago Center
06:56PM 40.5889 -88.1628 185° South 397 457 40,000  Level Chicago Center
06:57PM 40.4861 -88.2094 199° South 391 450 40,000  Level Chicago Center
06:58PM 40.3850 -88.2569 200° South 388 447 40,000  Level Chicago Center
06:59PM 40.2839 -88.3050 200° South 387 445 40,000  Level Chicago Center
07:00PM 40.1761 -88.3544 199° South 392 451 40,000  Level Chicago Center
07:01PM 40.0739 -88.4028 200° South 391 450 40,000  Level Kansas City Center
07:02PM 39.9708 -88.4503 199° South 390 449 40,000  Level Kansas City Center
07:03PM 39.8656 -88.4986 199° South 395 455 40,000  Level Kansas City Center
07:04PM 39.7619 -88.5483 200° South 396 456 40,000  Level Kansas City Center
07:05PM 39.6569 -88.5969 200° South 398 458 40,000  Level Kansas City Center
07:06PM 39.5536 -88.6447 200° South 395 455 40,000  Level Kansas City Center
07:07PM 39.4489 -88.6933 200° South 397 457 40,000  Level Kansas City Center
07:08PM 39.3444 -88.7422 200° South 389 448 40,000  Level Kansas City Center
07:09PM 39.2189 -88.7994 199° South 395 455 40,000  Level Kansas City Center
07:10PM 39.1156 -88.8472 200° South 395 455 40,000  Level Kansas City Center
07:11PM 39.0103 -88.8944 199° South 397 457 40,000  Level Kansas City Center
07:12PM 38.9067 -88.9406 199° South 396 456 40,000  Level Kansas City Center
07:13PM 38.7894 -88.9936 199° South 401 461 40,000  Level Kansas City Center
07:14PM 38.6764 -89.0439 199° South 399 459 40,000  Level Kansas City Center
07:15PM 38.5711 -89.0914 199° South 400 460 40,000  Level Kansas City Center
07:16PM 38.4658 -89.1389 199° South 401 461 40,000  Level Kansas City Center
07:17PM 38.3475 -89.1772 194° South 408 470 40,000  Level Kansas City Center
07:18PM 38.2350 -89.2058 191° South 410 472 40,000  Level Kansas City Center
07:19PM 38.1225 -89.2356 192° South 410 472 40,000  Level Kansas City Center
07:20PM 38.0017 -89.2653 191° South 410 472 40,000  Level Kansas City Center
07:21PM 37.8886 -89.2933 191° South 412 474 40,000  Level Kansas City Center
07:22PM 37.7778 -89.3181 190° South 408 470 40,000  Level Kansas City Center
07:23PM 37.6647 -89.3456 191° South 411 473 40,000  Level Kansas City Center
07:24PM 37.5508 -89.3739 191° South 414 476 40,000  Level Kansas City Center
07:25PM 37.4364 -89.4025 191° South 417 480 40,000  Level Kansas City Center
07:27PM 37.3211 -89.4314 191° South 420 483 40,000  Level Kansas City Center
07:28PM 37.1833 -89.4656 191° South 421 484 40,000  Level Kansas City Center
07:28PM 37.0872 -89.4961 194° South 428 493 40,000  Level Memphis Center
07:29PM 36.9750 -89.5233 191° South 428 493 40,000  Level Memphis Center
07:30PM 36.8583 -89.5506 191° South 428 493 40,000  Level Memphis Center
07:31PM 36.7461 -89.5800 192° South 428 493 40,000  Level Memphis Center
07:32PM 36.6317 -89.6072 191° South 428 493 40,000  Level Memphis Center
07:33PM 36.5192 -89.6367 192° South 428 493 40,000  Level Memphis Center
07:34PM 36.3922 -89.6661 191° South 428 493 40,000  Level Memphis Center
07:35PM 36.2756 -89.6928 190° South 428 493 40,000  Level Memphis Center
07:36PM 36.1631 -89.7169 190° South 428 493 40,000  Level Memphis Center
07:37PM 36.0550 -89.7408 190° South 418 481 40,000  Level Memphis Center
07:38PM 35.9444 -89.7672 191° South 413 475 40,000  Level Memphis Center
07:39PM 35.8361 -89.7911 190° South 408 470 40,000  Level Memphis Center
07:40PM 35.7236 -89.8200 192° South 408 470 40,000  Level Memphis Center
07:41PM 35.6342 -89.8386 190° South 402 463 40,000  Level Memphis Center
07:42PM 35.5111 -89.8672 191° South 396 456 40,000  Level Memphis Center
07:43PM 35.4028 -89.8933 191° South 396 456 40,000  Level Memphis Center
07:44PM 35.2922 -89.9194 191° South 402 463 40,000  Level Memphis Center
07:45PM 35.1797 -89.9481 192° South 408 470 40,000  Level Memphis Center
07:46PM 35.0714 -89.9739 191° South 408 470 40,000  Level Memphis Center
07:47PM 34.9567 -89.9922 187° South 413 475 40,000  Level Memphis Center
07:48PM 34.8419 -90.0053 185° South 413 475 40,000  Level Memphis Center
07:49PM 34.7231 -90.0108 182° South 423 487 40,000  Level Memphis Center
07:50PM 34.6083 -90.0189 183° South 423 487 40,000  Level Memphis Center
07:51PM 34.4978 -90.0269 183° South 415 478 40,000  Level Memphis Center
07:52PM 34.3831 -90.0325 182° South 415 478 40,000  Level Memphis Center
07:53PM 34.2703 -90.0431 184° South 409 471 40,000  Level Memphis Center
07:54PM 34.1597 -90.0508 183° South 404 465 40,000  Level Memphis Center
07:55PM 34.0472 -90.0589 183° South 404 465 40,000  Level Memphis Center
07:56PM 33.9322 -90.0667 183° South 410 472 40,000  Level Memphis Center
07:57PM 33.8281 -90.0747 184° South 410 472 40,000  Level Memphis Center
07:58PM 33.7175 -90.0850 184° South 410 472 40,000  Level Memphis Center
07:59PM 33.6025 -90.0928 183° South 410 472 40,000  Level Memphis Center
08:00PM 33.4878 -90.1031 184° South 410 472 40,000  Level Memphis Center
08:01PM 33.3753 -90.1108 183° South 410 472 40,000  Level Memphis Center
08:02PM 33.2603 -90.1186 183° South 410 472 40,000 -540 Level Memphis Center
08:03PM 33.1478 -90.1264 183° South 410 472 39,000 -1,320 Descending Memphis Center
08:04PM 33.0161 -90.1392 185° South 416 479 37,400 -1,740 Descending Memphis Center
08:05PM 32.8950 -90.1469 183° South 429 494 35,600 -1,500 Descending Memphis Center
08:06PM 32.7678 -90.1547 183° South 442 509 34,400 -1,200 Descending Memphis Center
08:07PM 32.6406 -90.1625 183° South 452 520 33,300 -1,080 Descending Memphis Center
08:08PM 32.5111 -90.1725 184° South 463 533 32,300 -1,020 Descending Memphis Center
08:09PM 32.3794 -90.1803 183° South 468 539 31,300 -1,020 Descending Memphis Center
08:10PM 32.2500 -90.1903 184° South 468 539 30,300 -1,020 Descending Memphis Center
08:11PM 32.1206 -90.2003 184° South 468 539 29,300 -660 Descending Memphis Center
08:12PM 31.9975 -90.2078 183° South 462 532 29,000 -420 Descending Memphis Center
08:14PM 31.8078 -90.2217 184° South 443 510 28,200 -420 Descending Houston Center
08:15PM 31.6861 -90.2308 184° South 440 506 28,000 -420 Descending Houston Center
08:16PM 31.5411 -90.2417 184° South 437 503 27,400 -780 Descending Houston Center
08:17PM 31.4211 -90.2500 183° South 432 497 26,400 -1,020 Descending Houston Center
08:18PM 31.3047 -90.2581 183° South 423 487 25,400 -1,080 Descending Houston Center
08:19PM 31.1919 -90.2503 177° South 407 468 24,200 -1,680 Descending Houston Center
08:20PM 31.0828 -90.2411 176° South 397 457 22,000 -2,100 Descending Houston Center
08:21PM 30.9761 -90.2344 177° South 385 443 19,900 -2,340 Descending Houston Center
08:22PM 30.8653 -90.2275 177° South 369 425 17,600 -2,400 Descending Houston Center
08:23PM 30.7669 -90.2172 175° South 359 413 15,400 -2,100 Descending Houston Center
08:24PM 30.6597 -90.2111 177° South 351 404 13,000 -2,100 Descending Houston Center
08:25PM 30.5847 -90.2053 176° South 334 384 11,400 -1,860 Descending Houston Center
08:25PM 30.5678 -90.2042 177° South 338 389 11,100 -420 Descending Houston Center
08:26PM 30.4992 -90.2064 182° South 302 348 11,000 -120 Descending Houston Center
08:27PM 30.4872 -90.2119 202° Southwest 298 343 11,000  Level Houston Center
08:27PM 30.4356 -90.2497 212° Southwest 253 291 11,000  Level Houston Center
08:28PM 30.4261 -90.2583 218° Southwest 265 305 11,000 -1,320 Level Houston Center
08:28PM 30.3600 -90.3058 212° Southwest 258 297 9,400 -1,680 Descending Houston Center
08:29PM 30.3008 -90.3492 212° Southwest 257 296 7,900 -1,440 Descending Houston Center
08:30PM 30.2342 -90.3639 191° South 265 305 6,700 -1,320 Descending Houston Center
08:31PM 30.2200 -90.3658 187° South 260 299 6,300 -1,380 Descending Houston Center
08:31PM 30.1658 -90.3761 189° South 247 284 5,300 -1,260 Descending Houston Center
08:32PM 30.1528 -90.3786 189° South 253 291 5,000 -1,920 Descending Houston Center
08:32PM 30.1011 -90.3858 187° South 231 266 3,400 -2,040 Descending Houston Center
08:33PM 30.0889 -90.3894 194° South 244 281 2,900 -1,560 Descending Houston Center
08:33PM 30.0472 -90.3953 187° South 205 236 2,000 -1,020 Descending Houston Center
08:34PM 30.0292 -90.3947 178° South 212 244 1,900 -480 Descending Houston Center
08:34PM 30.0194 -90.3794 126° Southeast 121 139 1,600 -720 Descending Houston Center
08:35PM 30.0147 -90.3586 105° East 154 177 1,200 -600 Descending Houston Center
08:35PM 30.0100 -90.3414 108° East 113 130 1,000 -300 Descending Houston Center
08:36PM 30.0092 -90.3242 93° East 140 161 900 -540 Descending Houston Center
08:36PM 30.0028 -90.3056 112° Southeast 117 135 500 -300 Descending Houston Center
08:37PM 29.9981 -90.2864 106° East 136 157 600 120 Climbing Houston Center